createdAt,value
2019-01-24T00:00:05.139Z,97314.26
2019-01-24T00:02:52.868Z,97320.20
2019-01-24T00:05:40.190Z,97321.04
2019-01-24T00:08:27.920Z,97325.97
2019-01-24T00:11:15.461Z,97326.34
2019-01-24T00:14:03.282Z,97330.70
2019-01-24T00:16:50.908Z,97335.09
2019-01-24T00:19:39.666Z,97339.31
2019-01-24T00:22:27.306Z,97342.95
2019-01-24T00:25:14.620Z,97342.95
2019-01-24T00:28:02.256Z,97346.41
2019-01-24T00:30:49.872Z,97349.41
2019-01-24T00:33:37.708Z,97344.59
2019-01-24T00:36:25.543Z,97349.41
2019-01-24T00:39:13.278Z,97350.70
2019-01-24T00:42:01.001Z,97360.91
2019-01-24T00:44:48.357Z,97360.66
2019-01-24T00:47:35.950Z,97355.23
2019-01-24T00:50:24.091Z,97350.93
2019-01-24T00:53:11.310Z,97356.14
2019-01-24T00:55:58.939Z,97355.13
2019-01-24T00:58:46.774Z,97363.64
2019-01-24T01:01:34.520Z,97367.74
2019-01-24T01:04:22.029Z,97368.31
2019-01-24T01:07:09.762Z,97369.34
2019-01-24T01:09:57.700Z,97374.91
2019-01-24T01:12:45.395Z,97379.23
2019-01-24T01:15:33.982Z,97386.47
2019-01-24T01:18:21.502Z,97386.74
2019-01-24T01:21:09.233Z,97394.70
2019-01-24T01:23:57.070Z,97398.91
2019-01-24T01:26:44.487Z,97400.54
2019-01-24T01:29:32.119Z,97399.37
2019-01-24T01:32:19.953Z,97401.90
2019-01-24T01:35:08.190Z,97408.31
2019-01-24T01:37:55.313Z,97407.57
2019-01-24T01:40:42.634Z,97413.32
2019-01-24T01:43:30.365Z,97409.78
2019-01-24T01:46:18.198Z,97417.55
2019-01-24T01:49:05.558Z,97416.93
2019-01-24T01:51:53.352Z,97423.09
2019-01-24T01:54:41.290Z,97422.91
2019-01-24T01:57:28.713Z,97418.52
2019-01-24T02:00:21.973Z,97418.17
2019-01-24T02:03:09.676Z,97417.98
2019-01-24T02:05:57.207Z,97423.36
2019-01-24T02:08:45.036Z,97424.73
2019-01-24T02:11:32.972Z,97428.56
2019-01-24T02:14:20.188Z,97429.90
2019-01-24T02:17:07.412Z,97429.03
2019-01-24T02:19:54.939Z,97425.84
2019-01-24T02:22:42.666Z,97433.14
2019-01-24T02:25:29.859Z,97434.30
2019-01-24T02:28:17.516Z,97430.02
2019-01-24T02:31:04.942Z,97428.95
2019-01-24T02:33:52.162Z,97425.72
2019-01-24T02:36:39.685Z,97427.56
2019-01-24T02:39:27.415Z,97433.63
2019-01-24T02:42:14.738Z,97435.77
2019-01-24T02:45:02.065Z,97432.44
2019-01-24T02:47:50.009Z,97440.71
2019-01-24T02:50:37.416Z,97436.33
2019-01-24T02:53:24.431Z,97439.33
2019-01-24T02:56:12.061Z,97446.20
2019-01-24T02:59:00.304Z,97447.67
2019-01-24T03:01:47.829Z,97435.53
2019-01-24T03:04:35.262Z,97438.69
2019-01-24T03:07:22.702Z,97440.93
2019-01-24T03:10:13.014Z,97447.14
2019-01-24T03:13:00.911Z,97444.30
2019-01-24T03:15:48.639Z,97442.06
2019-01-24T03:18:36.261Z,97444.28
2019-01-24T03:21:24.101Z,97445.20
2019-01-24T03:24:11.930Z,97442.04
2019-01-24T03:26:59.455Z,97446.17
2019-01-24T03:29:46.574Z,97448.98
2019-01-24T03:32:34.131Z,97448.02
2019-01-24T03:35:24.618Z,97451.34
2019-01-24T03:38:12.020Z,97454.25
2019-01-24T03:40:59.855Z,97459.27
2019-01-24T03:43:47.691Z,97463.27
2019-01-24T03:46:35.110Z,97464.78
2019-01-24T03:49:22.566Z,97458.94
2019-01-24T03:52:10.059Z,97461.83
2019-01-24T03:54:57.630Z,97460.91
2019-01-24T03:57:45.114Z,97454.92
2019-01-24T04:00:33.048Z,97451.45
2019-01-24T04:03:20.675Z,97451.89
2019-01-24T04:06:08.136Z,97447.56
2019-01-24T04:08:55.116Z,97450.73
2019-01-24T04:11:43.030Z,97450.27
2019-01-24T04:14:30.576Z,97455.21
2019-01-24T04:17:18.206Z,97469.67
2019-01-24T04:20:08.705Z,97460.93
2019-01-24T04:22:55.918Z,97453.88
2019-01-24T04:25:43.859Z,97458.01
2019-01-24T04:28:33.288Z,97458.91
2019-01-24T04:31:20.753Z,97454.22
2019-01-24T04:34:07.969Z,97459.87
2019-01-24T04:36:55.393Z,97458.52
2019-01-24T04:39:43.026Z,97457.98
2019-01-24T04:42:30.755Z,97458.55
2019-01-24T04:45:18.799Z,97454.97
2019-01-24T04:48:06.214Z,97455.75
2019-01-24T04:50:53.652Z,97454.02
2019-01-24T04:53:41.065Z,97451.73
2019-01-24T04:56:28.691Z,97458.56
2019-01-24T04:59:16.424Z,97457.89
2019-01-24T05:02:04.564Z,97454.89
2019-01-24T05:04:52.510Z,97457.39
2019-01-24T05:07:40.234Z,97461.92
2019-01-24T05:10:27.755Z,97460.00
2019-01-24T05:13:15.386Z,97465.44
2019-01-24T05:16:02.911Z,97463.61
2019-01-24T05:18:50.745Z,97469.63
2019-01-24T05:21:37.860Z,97472.31
2019-01-24T05:24:25.491Z,97482.52
2019-01-24T05:27:13.426Z,97483.20
2019-01-24T05:30:01.063Z,97488.64
2019-01-24T05:32:48.581Z,97487.52
2019-01-24T05:35:36.008Z,97493.98
2019-01-24T05:38:24.041Z,97491.55
2019-01-24T05:41:11.364Z,97499.72
2019-01-24T05:43:58.888Z,97499.44
2019-01-24T05:46:47.034Z,97507.95
2019-01-24T05:49:34.761Z,97512.33
2019-01-24T05:52:22.287Z,97514.79
2019-01-24T05:55:14.572Z,97509.77
2019-01-24T05:58:02.050Z,97513.08
2019-01-24T06:00:49.895Z,97512.41
2019-01-24T06:03:37.539Z,97507.53
2019-01-24T06:06:25.040Z,97520.08
2019-01-24T06:09:12.625Z,97511.55
2019-01-24T06:12:00.304Z,97514.33
2019-01-24T06:14:47.721Z,97522.48
2019-01-24T06:17:35.450Z,97531.75
2019-01-24T06:20:22.979Z,97527.44
2019-01-24T06:23:11.250Z,97529.79
2019-01-24T06:25:58.336Z,97527.99
2019-01-24T06:28:45.792Z,97528.41
2019-01-24T06:31:32.877Z,97531.25
2019-01-24T06:34:19.997Z,97539.00
2019-01-24T06:37:07.623Z,97532.02
2019-01-24T06:39:54.743Z,97534.79
2019-01-24T06:42:42.369Z,97535.27
2019-01-24T06:45:29.997Z,97540.30
2019-01-24T06:48:17.526Z,97545.20
2019-01-24T06:51:05.252Z,97538.91
2019-01-24T06:53:52.609Z,97541.82
2019-01-24T06:56:39.901Z,97544.64
2019-01-24T06:59:27.425Z,97551.33
2019-01-24T07:02:14.743Z,97556.71
2019-01-24T07:05:02.269Z,97557.78
2019-01-24T07:07:49.694Z,97562.92
2019-01-24T07:10:37.225Z,97563.41
2019-01-24T07:13:24.951Z,97570.08
2019-01-24T07:16:12.480Z,97566.08
2019-01-24T07:19:01.859Z,97572.64
2019-01-24T07:21:49.175Z,97580.38
2019-01-24T07:24:36.797Z,97577.23
2019-01-24T07:27:23.815Z,97579.98
2019-01-24T07:30:16.616Z,97575.42
2019-01-24T07:33:03.601Z,97575.41
2019-01-24T07:35:50.898Z,97585.56
2019-01-24T07:38:38.115Z,97583.80
2019-01-24T07:41:25.641Z,97595.75
2019-01-24T07:44:13.069Z,97597.56
2019-01-24T07:47:00.591Z,97595.81
2019-01-24T07:49:48.015Z,97599.67
2019-01-24T07:52:35.744Z,97602.73
2019-01-24T07:55:23.376Z,97603.64
2019-01-24T07:58:10.900Z,97605.44
2019-01-24T08:00:58.065Z,97602.34
2019-01-24T08:06:47.338Z,97615.04
2019-01-24T08:09:34.773Z,97617.97
2019-01-24T08:12:22.186Z,97619.87
2019-01-24T08:15:12.257Z,97615.53
2019-01-24T08:17:59.699Z,97621.51
2019-01-24T08:20:47.459Z,97622.78
2019-01-24T08:23:34.548Z,97621.39
2019-01-24T08:26:22.788Z,97622.11
2019-01-24T08:29:10.311Z,97619.73
2019-01-24T08:31:57.735Z,97612.70
2019-01-24T08:34:45.467Z,97611.76
2019-01-24T08:37:33.200Z,97612.58
2019-01-24T08:40:24.890Z,97622.09
2019-01-24T08:43:12.390Z,97626.55
2019-01-24T08:45:59.669Z,97622.11
2019-01-24T08:48:46.994Z,97625.72
2019-01-24T08:51:34.517Z,97623.70
2019-01-24T08:54:21.841Z,97619.83
2019-01-24T08:57:08.958Z,97629.56
2019-01-24T08:59:56.585Z,97632.72
2019-01-24T09:02:44.007Z,97636.12
2019-01-24T09:05:31.265Z,97641.98
2019-01-24T09:08:18.751Z,97642.70
2019-01-24T09:11:06.684Z,97644.80
2019-01-24T09:13:53.600Z,97644.89
2019-01-24T09:16:40.616Z,97642.08
2019-01-24T09:19:28.551Z,97642.94
2019-01-24T09:22:15.979Z,97516.81
2019-01-24T09:25:05.299Z,97633.74
2019-01-24T09:27:52.563Z,97638.62
2019-01-24T09:30:40.499Z,97638.98
2019-01-24T09:33:27.414Z,97642.16
2019-01-24T09:36:14.865Z,97649.83
2019-01-24T09:39:02.056Z,97656.16
2019-01-24T09:41:49.683Z,97653.37
2019-01-24T09:44:37.514Z,97659.08
2019-01-24T09:47:24.939Z,97667.80
2019-01-24T09:50:15.853Z,97671.32
2019-01-24T09:53:03.370Z,97675.17
2019-01-24T09:55:51.204Z,97676.17
2019-01-24T09:58:38.833Z,97681.28
2019-01-24T10:01:26.565Z,97689.92
2019-01-24T10:04:14.089Z,97680.81
2019-01-24T10:07:01.513Z,97680.66
2019-01-24T10:09:49.245Z,97682.57
2019-01-24T10:12:36.987Z,97678.48
2019-01-24T10:15:24.710Z,97684.55
2019-01-24T10:18:12.641Z,97683.37
2019-01-24T10:21:00.375Z,97686.40
2019-01-24T10:23:47.696Z,97688.76
2019-01-24T10:26:35.632Z,97686.61
2019-01-24T10:29:23.055Z,97685.93
2019-01-24T10:32:10.680Z,97681.34
2019-01-24T10:34:58.106Z,97684.64
2019-01-24T10:37:45.837Z,97679.62
2019-01-24T10:40:33.982Z,97680.83
2019-01-24T10:43:21.201Z,97681.33
2019-01-24T10:46:09.028Z,97684.80
2019-01-24T10:48:56.661Z,97680.50
2019-01-24T10:51:44.495Z,97686.99
2019-01-24T10:54:32.119Z,97689.03
2019-01-24T10:57:19.648Z,97692.25
2019-01-24T11:00:16.531Z,97685.69
2019-01-24T11:03:06.319Z,97679.94
2019-01-24T11:05:53.692Z,97673.02
2019-01-24T11:08:40.812Z,97682.98
2019-01-24T11:11:28.438Z,97683.37
2019-01-24T11:14:15.453Z,97687.17
2019-01-24T11:17:03.085Z,97675.91
2019-01-24T11:19:51.426Z,97684.48
2019-01-24T11:22:39.977Z,97680.48
2019-01-24T11:25:28.221Z,97677.70
2019-01-24T11:28:15.747Z,97677.39
2019-01-24T11:31:03.480Z,97673.46
2019-01-24T11:33:51.208Z,97676.33
2019-01-24T11:36:38.325Z,97675.31
2019-01-24T11:39:26.055Z,97680.02
2019-01-24T11:42:13.180Z,97671.37
2019-01-24T11:45:01.184Z,97664.80
2019-01-24T11:47:49.661Z,97663.63
2019-01-24T11:50:37.390Z,97666.02
2019-01-24T11:53:24.608Z,97661.73
2019-01-24T11:56:12.346Z,97660.50
2019-01-24T11:58:59.662Z,97661.23
2019-01-24T12:01:47.191Z,97663.70
2019-01-24T12:04:35.024Z,97660.13
2019-01-24T12:07:22.342Z,97661.84
2019-01-24T12:10:15.807Z,97661.69
2019-01-24T12:13:03.335Z,97658.15
2019-01-24T12:15:50.558Z,97662.60
2019-01-24T12:18:38.186Z,97659.92
2019-01-24T12:21:25.299Z,97658.02
2019-01-24T12:24:13.031Z,97656.78
2019-01-24T12:27:00.564Z,97652.84
2019-01-24T12:29:47.570Z,97658.45
2019-01-24T12:32:35.406Z,97657.78
2019-01-24T12:35:23.338Z,97651.98
2019-01-24T12:38:10.870Z,97653.55
2019-01-24T12:40:58.391Z,97650.80
2019-01-24T12:43:46.234Z,97657.91
2019-01-24T12:46:33.446Z,97658.14
2019-01-24T12:49:21.280Z,97654.06
2019-01-24T12:52:08.914Z,97656.73
2019-01-24T12:54:56.352Z,97653.70
2019-01-24T12:57:43.859Z,97654.45
2019-01-24T13:00:34.152Z,97661.60
2019-01-24T13:03:21.573Z,97659.89
2019-01-24T13:06:09.100Z,97665.23
2019-01-24T13:08:56.523Z,97657.30
2019-01-24T13:11:44.256Z,97655.31
2019-01-24T13:14:31.577Z,97663.84
2019-01-24T13:17:19.003Z,97651.72
2019-01-24T13:20:09.903Z,97657.44
2019-01-24T13:22:57.635Z,97659.05
2019-01-24T13:25:44.956Z,97658.80
2019-01-24T13:28:32.791Z,97660.22
2019-01-24T13:31:19.823Z,97662.34
2019-01-24T13:34:07.538Z,97663.02
2019-01-24T13:36:54.555Z,97666.10
2019-01-24T13:39:41.975Z,97674.28
2019-01-24T13:42:29.192Z,97672.78
2019-01-24T13:45:22.221Z,97674.98
2019-01-24T13:48:09.885Z,97681.23
2019-01-24T13:50:57.738Z,97680.16
2019-01-24T13:53:45.038Z,97686.09
2019-01-24T13:56:32.630Z,97687.52
2019-01-24T13:59:20.298Z,97542.34
2019-01-24T14:02:07.507Z,97692.22
2019-01-24T14:04:55.252Z,97689.16
2019-01-24T14:07:42.869Z,97692.54
2019-01-24T14:10:30.293Z,97698.66
2019-01-24T14:13:18.128Z,97697.61
2019-01-24T14:16:06.063Z,97696.89
2019-01-24T14:18:53.511Z,97708.74
2019-01-24T14:21:40.607Z,97707.05
2019-01-24T14:24:28.128Z,97702.86
2019-01-24T14:27:15.409Z,97709.48
2019-01-24T14:30:03.286Z,97710.86
2019-01-24T14:32:50.809Z,97711.13
2019-01-24T14:35:38.132Z,97708.70
2019-01-24T14:38:25.761Z,97716.05
2019-01-24T14:41:13.704Z,97710.69
2019-01-24T14:44:20.253Z,97712.42
2019-01-24T14:47:07.574Z,97717.06
2019-01-24T14:49:55.471Z,97729.42
2019-01-24T14:52:43.174Z,97735.03
2019-01-24T14:55:30.665Z,97734.03
2019-01-24T14:58:18.295Z,97736.23
2019-01-24T15:01:06.970Z,97745.31
2019-01-24T15:03:54.680Z,97742.86
2019-01-24T15:06:42.308Z,97760.69
2019-01-24T15:09:29.834Z,97745.70
2019-01-24T15:12:17.462Z,97748.30
2019-01-24T15:15:07.858Z,97749.32
2019-01-24T15:17:55.408Z,97747.73
2019-01-24T15:20:42.983Z,97753.73
2019-01-24T15:23:31.691Z,97748.53
2019-01-24T15:26:19.500Z,97743.55
2019-01-24T15:29:07.022Z,97745.69
2019-01-24T15:31:54.141Z,97748.02
2019-01-24T15:34:42.193Z,97751.38
2019-01-24T15:37:30.015Z,97763.31
2019-01-24T15:40:23.658Z,97760.31
2019-01-24T15:43:10.804Z,97759.47
2019-01-24T15:45:58.136Z,97759.27
2019-01-24T15:48:45.856Z,97755.73
2019-01-24T15:51:32.966Z,97752.33
2019-01-24T15:54:20.082Z,97759.16
2019-01-24T15:57:07.915Z,97771.36
2019-01-24T15:59:55.650Z,97768.47
2019-01-24T16:02:43.198Z,97764.70
2019-01-24T16:05:30.699Z,97771.64
2019-01-24T16:08:18.123Z,97774.00
2019-01-24T16:11:08.516Z,97774.38
2019-01-24T16:14:03.850Z,97768.89
2019-01-24T16:16:55.094Z,97775.64
2019-01-24T16:19:42.465Z,97781.27
2019-01-24T16:22:30.098Z,97784.52
2019-01-24T16:25:19.813Z,97789.31
2019-01-24T16:28:07.710Z,97790.29
2019-01-24T16:30:56.625Z,97790.02
2019-01-24T16:33:44.188Z,97791.56
2019-01-24T16:36:32.536Z,97802.92
2019-01-24T16:39:20.165Z,97805.28
2019-01-24T16:42:07.895Z,97809.48
2019-01-24T16:44:55.336Z,97815.13
2019-01-24T16:47:42.437Z,97818.55
2019-01-24T16:50:30.166Z,97814.81
2019-01-24T16:53:17.597Z,97827.80
2019-01-24T16:56:05.740Z,97810.78
2019-01-24T16:58:52.748Z,97808.47
2019-01-24T17:01:40.286Z,97808.88
2019-01-24T17:04:27.639Z,97819.36
2019-01-24T17:07:15.329Z,97818.59
2019-01-24T17:10:03.271Z,97821.61
2019-01-24T17:12:51.304Z,97820.06
2019-01-24T17:15:38.522Z,97826.48
2019-01-24T17:18:26.352Z,97834.56
2019-01-24T17:21:14.489Z,97831.27
2019-01-24T17:24:02.021Z,97831.11
2019-01-24T17:26:49.751Z,97842.86
2019-01-24T17:29:37.278Z,97839.66
2019-01-24T17:32:24.923Z,97847.20
2019-01-24T17:35:12.676Z,97846.02
2019-01-24T17:38:00.164Z,97846.16
2019-01-24T17:40:47.592Z,97855.19
2019-01-24T17:43:35.219Z,97848.34
2019-01-24T17:46:22.649Z,97854.10
2019-01-24T17:49:10.475Z,97861.40
2019-01-24T17:51:58.202Z,97865.50
2019-01-24T17:54:45.750Z,97868.23
2019-01-24T17:57:33.258Z,97875.02
2019-01-24T18:00:23.405Z,97875.37
2019-01-24T18:03:11.081Z,97871.96
2019-01-24T18:05:58.496Z,97874.29
2019-01-24T18:08:46.125Z,97876.63
2019-01-24T18:11:36.928Z,97893.34
2019-01-24T18:14:24.460Z,97885.88
2019-01-24T18:17:16.333Z,97881.42
2019-01-24T18:20:05.444Z,97887.78
2019-01-24T18:22:52.971Z,97888.39
2019-01-24T18:25:40.399Z,97892.27
2019-01-24T18:28:28.127Z,97893.09
2019-01-24T18:31:16.065Z,97893.67
2019-01-24T18:34:04.115Z,97899.10
2019-01-24T18:36:51.658Z,97896.84
2019-01-24T18:39:39.051Z,97894.92
2019-01-24T18:42:26.582Z,97897.73
2019-01-24T18:45:22.457Z,97898.31
2019-01-24T18:48:10.232Z,97907.36
2019-01-24T18:50:57.861Z,97908.66
2019-01-24T18:53:45.287Z,97913.61
2019-01-24T18:56:32.507Z,97919.94
2019-01-24T18:59:20.027Z,97917.34
2019-01-24T19:02:07.785Z,97911.46
2019-01-24T19:04:55.598Z,97907.83
2019-01-24T19:07:43.585Z,97906.07
2019-01-24T19:10:31.270Z,97914.44
2019-01-24T19:13:19.358Z,97913.39
2019-01-24T19:16:07.249Z,97918.23
2019-01-24T19:18:55.997Z,97914.56
2019-01-24T19:21:44.952Z,97916.30
2019-01-24T19:24:32.410Z,97926.41
2019-01-24T19:27:19.702Z,97925.49
2019-01-24T19:30:25.508Z,97919.41
2019-01-24T19:33:13.487Z,97924.33
2019-01-24T19:36:00.634Z,97922.59
2019-01-24T19:38:53.077Z,97925.30
2019-01-24T19:41:37.602Z,97926.92
2019-01-24T19:44:25.386Z,97927.77
2019-01-24T19:47:13.242Z,97937.75
2019-01-24T19:50:01.993Z,97940.09
2019-01-24T19:52:49.471Z,97937.63
2019-01-24T19:55:37.787Z,97943.63
2019-01-24T19:58:25.643Z,97945.97
2019-01-24T20:01:13.570Z,97943.13
2019-01-24T20:04:00.886Z,97935.52
2019-01-24T20:06:49.276Z,97939.05
2019-01-24T20:09:37.266Z,97936.55
2019-01-24T20:12:24.694Z,97947.97
2019-01-24T20:15:15.337Z,97950.91
2019-01-24T20:18:03.030Z,97953.63
2019-01-24T20:20:50.444Z,97957.75
2019-01-24T20:23:37.580Z,97962.68
2019-01-24T20:26:25.403Z,97964.44
2019-01-24T20:29:13.025Z,97965.15
2019-01-24T20:32:00.739Z,97969.27
2019-01-24T20:34:48.113Z,97976.66
2019-01-24T20:37:35.908Z,97974.68
2019-01-24T20:40:23.697Z,97977.96
2019-01-24T20:43:13.082Z,97985.39
2019-01-24T20:46:00.222Z,97981.73
2019-01-24T20:48:47.758Z,97984.08
2019-01-24T20:51:35.280Z,97982.20
2019-01-24T20:54:23.014Z,97976.55
2019-01-24T20:57:10.541Z,97974.44
2019-01-24T20:59:58.171Z,97981.28
2019-01-24T21:02:47.133Z,97981.14
2019-01-24T21:05:35.371Z,97988.45
2019-01-24T21:08:23.411Z,97987.48
2019-01-24T21:11:10.946Z,97992.20
2019-01-24T21:13:58.358Z,97990.80
2019-01-24T21:16:45.781Z,97996.53
2019-01-24T21:19:33.129Z,97995.95
2019-01-24T21:22:21.155Z,97995.02
2019-01-24T21:25:11.561Z,97991.60
2019-01-24T21:27:59.367Z,97993.37
2019-01-24T21:30:47.308Z,97997.37
2019-01-24T21:33:36.272Z,97997.84
2019-01-24T21:36:25.144Z,97995.02
2019-01-24T21:39:14.730Z,97999.23
2019-01-24T21:42:02.224Z,97997.48
2019-01-24T21:44:52.484Z,97997.95
2019-01-24T21:47:39.527Z,98002.66
2019-01-24T21:50:31.974Z,98001.72
2019-01-24T21:53:20.726Z,97997.71
2019-01-24T21:56:09.179Z,98000.05
2019-01-24T21:58:56.612Z,98002.30
2019-01-24T22:01:44.328Z,98001.47
2019-01-24T22:04:32.576Z,98008.03
2019-01-24T22:07:20.305Z,98010.84
2019-01-24T22:10:11.206Z,98006.88
2019-01-24T22:12:59.347Z,98006.64
2019-01-24T22:15:47.180Z,98009.45
2019-01-24T22:18:34.915Z,98002.63
2019-01-24T22:21:22.852Z,98008.30
2019-01-24T22:24:11.297Z,98002.89
2019-01-24T22:26:59.334Z,97999.48
2019-01-24T22:29:46.862Z,98003.45
2019-01-24T22:32:34.593Z,97998.28
2019-01-24T22:35:22.324Z,97998.19
2019-01-24T22:38:09.962Z,97997.46
2019-01-24T22:40:57.380Z,97999.25
2019-01-24T22:43:44.805Z,97998.28
2019-01-24T22:46:32.532Z,97997.13
2019-01-24T22:49:19.751Z,97999.48
2019-01-24T22:52:07.067Z,97995.13
2019-01-24T22:54:54.290Z,98003.58
2019-01-24T22:57:41.789Z,97993.12
2019-01-24T23:00:53.920Z,97992.42
2019-01-24T23:03:43.765Z,97995.13
2019-01-24T23:06:31.120Z,97991.36
2019-01-24T23:09:18.446Z,97998.42
2019-01-24T23:12:05.966Z,97992.42
2019-01-24T23:14:53.391Z,97995.36
2019-01-24T23:17:41.023Z,98002.41
2019-01-24T23:20:28.714Z,98009.11
2019-01-24T23:23:16.284Z,98001.92
2019-01-24T23:26:03.907Z,98006.77
2019-01-24T23:28:51.231Z,97812.22
2019-01-24T23:31:39.063Z,98003.22
2019-01-24T23:34:26.281Z,98023.42
2019-01-24T23:37:14.322Z,98012.16
2019-01-24T23:40:01.471Z,98009.94
2019-01-24T23:42:49.065Z,98014.64
2019-01-24T23:45:36.489Z,98018.28
2019-01-24T23:48:24.135Z,98019.08
2019-01-24T23:51:11.653Z,98020.37
2019-01-24T23:53:59.173Z,98018.98
2019-01-24T23:56:46.808Z,98024.61
2019-01-24T23:59:34.633Z,98018.98
